Time;durP1;ratioP1;P1;durP2;ratioP2;P2;SDS_P1;SDS_P2;PMS_P1;PMS_P2;Temp;Humidity;BMP_temperature;BMP_pressure;BME280_temperature;BME280_humidity;BME280_pressure;Samples;Min_cycle;Max_cycle;Signal;HPM_P1;HPM_P2
2023/05/07 00:01:23;;;;;;;13.60;3.72;;;18.10;99.90;;;;;;4150732;28;20180;-95
2023/05/07 00:03:26;;;;;;;14.77;4.15;;;18.00;99.90;;;;;;4135292;28;20173;-95
2023/05/07 00:05:27;;;;;;;13.32;3.50;;;18.00;99.90;;;;;;4151584;28;20315;-96
2023/05/07 00:07:28;;;;;;;13.52;4.18;;;18.00;99.90;;;;;;4150945;28;20176;-94
2023/05/07 00:09:29;;;;;;;9.23;3.40;;;17.90;99.90;;;;;;4148715;28;20236;-92
2023/05/07 00:11:30;;;;;;;15.38;3.70;;;17.90;99.90;;;;;;4132194;28;20177;-93
2023/05/07 00:13:35;;;;;;;11.20;3.58;;;17.90;99.90;;;;;;4131894;28;20689;-95
2023/05/07 00:15:35;;;;;;;16.02;3.65;;;17.90;99.90;;;;;;4132154;28;20534;-93
2023/05/07 00:17:37;;;;;;;11.65;4.45;;;17.80;99.90;;;;;;4132512;28;20220;-93
2023/05/07 00:19:37;;;;;;;14.98;3.72;;;17.80;99.90;;;;;;4132055;28;20174;-96
2023/05/07 00:21:38;;;;;;;14.70;3.47;;;17.80;99.90;;;;;;4131921;28;20185;-96
2023/05/07 00:23:39;;;;;;;14.30;3.63;;;17.80;99.90;;;;;;4147969;28;20284;-92
2023/05/07 00:25:40;;;;;;;9.65;3.28;;;17.90;99.90;;;;;;4131703;28;20171;-92
2023/05/07 00:27:41;;;;;;;11.75;3.60;;;17.80;99.90;;;;;;4148032;28;20200;-92
2023/05/07 00:29:41;;;;;;;17.67;4.05;;;17.70;99.90;;;;;;4131842;28;20173;-92
2023/05/07 00:31:42;;;;;;;10.65;3.58;;;17.70;99.90;;;;;;4147935;28;20169;-93
2023/05/07 00:33:43;;;;;;;16.73;3.90;;;17.80;99.90;;;;;;4148030;28;20641;-92
2023/05/07 00:37:56;;;;;;;14.20;4.13;;;18.40;99.90;;;;;;4145171;28;20208;-92
2023/05/07 00:39:57;;;;;;;15.02;3.72;;;18.10;99.90;;;;;;4115902;28;20174;-93
2023/05/07 00:41:58;;;;;;;13.43;3.97;;;17.70;99.90;;;;;;4116049;28;20743;-94
2023/05/07 00:43:59;;;;;;;16.25;4.10;;;17.60;99.90;;;;;;4138067;28;20189;-94
2023/05/07 00:46:00;;;;;;;10.90;3.83;;;17.50;99.90;;;;;;4147850;28;20180;-93
2023/05/07 00:48:02;;;;;;;10.07;3.40;;;17.40;99.90;;;;;;4132107;28;20177;-93
2023/05/07 00:50:03;;;;;;;10.38;3.78;;;17.30;99.90;;;;;;4131626;28;20181;-92
2023/05/07 00:52:09;;;;;;;15.18;3.85;;;17.30;99.90;;;;;;4132908;28;20165;-96
2023/05/07 00:54:11;;;;;;;10.10;3.80;;;17.20;99.90;;;;;;4135159;28;20683;-94
2023/05/07 00:56:12;;;;;;;12.10;3.75;;;17.20;99.90;;;;;;4135299;28;20240;-96
2023/05/07 00:58:13;;;;;;;17.35;4.40;;;17.10;99.90;;;;;;4151416;28;20259;-93
2023/05/07 01:00:14;;;;;;;20.90;3.97;;;17.10;99.90;;;;;;4135246;28;20173;-92
2023/05/07 01:02:15;;;;;;;12.98;3.80;;;17.10;99.90;;;;;;4135092;28;20666;-94
2023/05/07 01:04:15;;;;;;;12.80;4.15;;;17.00;99.90;;;;;;4134526;28;20277;-94
2023/05/07 01:06:17;;;;;;;15.65;4.00;;;17.00;99.90;;;;;;4150936;28;20181;-94
2023/05/07 01:08:18;;;;;;;15.02;4.03;;;17.00;99.90;;;;;;4151186;28;20177;-93
2023/05/07 01:10:19;;;;;;;11.43;3.72;;;17.00;99.90;;;;;;4150909;28;20319;-95
2023/05/07 01:12:20;;;;;;;15.60;3.90;;;17.00;99.90;;;;;;4150461;28;20210;-92
2023/05/07 01:14:22;;;;;;;14.98;3.92;;;16.90;99.90;;;;;;4134691;28;20190;-93
2023/05/07 01:16:23;;;;;;;17.48;3.85;;;16.90;99.90;;;;;;4134640;28;20198;-91
2023/05/07 01:18:23;;;;;;;11.65;3.95;;;17.40;99.90;;;;;;4134616;28;20538;-92
2023/05/07 01:20:25;;;;;;;13.77;4.25;;;17.40;99.90;;;;;;4150898;28;20212;-92
2023/05/07 01:22:36;;;;;;;11.88;4.18;;;17.20;99.90;;;;;;4126817;28;20174;-92
2023/05/07 01:24:37;;;;;;;9.23;3.38;;;17.00;99.90;;;;;;4150675;28;20203;-92
2023/05/07 01:26:40;;;;;;;11.15;4.30;;;16.90;99.90;;;;;;4134472;28;20547;-95
2023/05/07 01:28:41;;;;;;;13.48;3.97;;;16.90;99.90;;;;;;4150729;28;20161;-92
2023/05/07 01:30:49;;;;;;;13.57;3.83;;;16.80;99.90;;;;;;4134733;28;20188;-92
2023/05/07 01:33:02;;;;;;;11.10;3.50;;;16.80;99.90;;;;;;4150638;28;20204;-92
2023/05/07 01:35:06;;;;;;;11.15;3.75;;;16.70;99.90;;;;;;4150385;28;20303;-95
2023/05/07 01:37:07;;;;;;;14.02;4.25;;;16.70;99.90;;;;;;4150286;28;20180;-92
2023/05/07 01:39:09;;;;;;;12.85;4.20;;;16.60;99.90;;;;;;4150370;28;20691;-92
2023/05/07 01:41:11;;;;;;;14.82;4.22;;;16.60;99.90;;;;;;4134323;28;20741;-95
2023/05/07 01:43:12;;;;;;;11.60;3.90;;;16.60;99.90;;;;;;4150771;28;20181;-94
2023/05/07 01:45:14;;;;;;;10.88;3.47;;;16.60;99.90;;;;;;4148978;28;20219;-95
2023/05/07 01:47:15;;;;;;;11.35;4.32;;;16.60;99.90;;;;;;4150601;28;20212;-95
2023/05/07 01:49:16;;;;;;;11.32;3.40;;;16.60;99.90;;;;;;4134495;28;20177;-92
2023/05/07 01:51:19;;;;;;;15.55;4.13;;;16.60;99.90;;;;;;4150538;28;20168;-92
2023/05/07 01:53:20;;;;;;;16.10;4.10;;;16.60;99.90;;;;;;4134195;28;20227;-92
2023/05/07 01:55:21;;;;;;;13.48;3.97;;;16.60;99.90;;;;;;4134398;28;20201;-92
2023/05/07 01:57:22;;;;;;;17.13;4.40;;;16.70;99.90;;;;;;4134039;28;20169;-92
2023/05/07 01:59:23;;;;;;;12.50;3.80;;;16.70;99.90;;;;;;4149851;28;20172;-93
2023/05/07 02:01:24;;;;;;;11.30;3.75;;;16.70;99.90;;;;;;4133718;28;20293;-93
2023/05/07 02:03:25;;;;;;;14.05;3.70;;;16.70;99.90;;;;;;4149280;28;20298;-94
2023/05/07 02:05:34;;;;;;;13.27;3.40;;;16.70;99.90;;;;;;4134880;28;20224;-92
2023/05/07 02:07:57;;;;;;;10.30;3.13;;;16.70;99.90;;;;;;4136561;28;20173;-93
2023/05/07 02:09:59;;;;;;;16.20;4.03;;;16.60;99.90;;;;;;4133851;28;20185;-91
2023/05/07 02:12:00;;;;;;;13.18;3.83;;;16.60;99.90;;;;;;4133857;28;20169;-93
2023/05/07 02:14:01;;;;;;;12.18;3.63;;;16.60;99.90;;;;;;4149989;28;20220;-96
2023/05/07 02:16:02;;;;;;;13.43;3.78;;;16.70;99.90;;;;;;4133794;28;20170;-95
2023/05/07 02:18:06;;;;;;;12.38;3.88;;;16.60;99.90;;;;;;4150091;28;20235;-95
2023/05/07 02:20:13;;;;;;;14.23;4.55;;;16.60;99.90;;;;;;4133476;28;20166;-95
2023/05/07 02:22:14;;;;;;;11.32;3.85;;;16.90;99.90;;;;;;4149760;28;20257;-96
2023/05/07 02:24:15;;;;;;;11.90;3.70;;;17.30;99.90;;;;;;4133799;28;20274;-95
2023/05/07 02:26:16;;;;;;;14.77;4.28;;;17.40;99.90;;;;;;4149803;28;20653;-92
2023/05/07 02:28:16;;;;;;;10.57;3.30;;;17.50;99.90;;;;;;4133508;28;20186;-92
2023/05/07 02:30:25;;;;;;;13.55;4.43;;;17.30;99.90;;;;;;4134214;28;20245;-95
2023/05/07 02:32:28;;;;;;;14.80;4.20;;;17.30;99.90;;;;;;4133390;28;20587;-92
2023/05/07 02:34:28;;;;;;;14.13;4.20;;;17.30;99.90;;;;;;4133152;28;20203;-94
2023/05/07 02:36:30;;;;;;;15.80;4.88;;;17.30;99.90;;;;;;4133009;28;20522;-94
2023/05/07 02:38:44;;;;;;;19.00;4.55;;;17.40;99.90;;;;;;4149840;28;20661;-95
2023/05/07 02:40:45;;;;;;;13.50;4.78;;;17.70;99.90;;;;;;4149892;28;20172;-93
2023/05/07 02:42:46;;;;;;;18.05;5.40;;;18.00;99.90;;;;;;4133627;28;20265;-92
2023/05/07 02:44:47;;;;;;;14.05;4.97;;;18.20;99.90;;;;;;4133220;28;20193;-95
2023/05/07 02:46:48;;;;;;;13.70;4.80;;;18.10;99.90;;;;;;4133307;28;20169;-92
2023/05/07 02:48:48;;;;;;;12.52;5.07;;;18.00;99.90;;;;;;4149397;28;20278;-92
2023/05/07 02:50:49;;;;;;;15.60;5.32;;;17.90;99.90;;;;;;4149078;28;20645;-96
2023/05/07 02:52:50;;;;;;;17.58;4.88;;;17.80;99.90;;;;;;4149392;28;20216;-92
2023/05/07 02:54:51;;;;;;;14.40;4.95;;;17.60;99.90;;;;;;4149190;28;20185;-95
2023/05/07 02:56:52;;;;;;;14.52;5.50;;;17.40;99.90;;;;;;4133095;28;20217;-95
2023/05/07 02:58:53;;;;;;;13.88;4.70;;;17.20;99.90;;;;;;4149075;28;20267;-95
2023/05/07 03:00:55;;;;;;;18.60;4.97;;;17.10;99.90;;;;;;4133005;28;20261;-93
2023/05/07 03:03:16;;;;;;;15.85;5.10;;;17.00;99.90;;;;;;4149347;28;20177;-92
2023/05/07 03:05:17;;;;;;;18.70;4.85;;;17.00;99.90;;;;;;4132924;28;20240;-93
2023/05/07 03:07:18;;;;;;;13.70;4.28;;;16.90;99.90;;;;;;4149202;28;20605;-92
2023/05/07 03:09:19;;;;;;;15.23;4.60;;;16.70;99.90;;;;;;4133184;28;20196;-92
2023/05/07 03:11:20;;;;;;;15.38;4.57;;;16.60;99.90;;;;;;4132814;28;20664;-93
2023/05/07 03:13:21;;;;;;;14.52;4.50;;;16.50;99.90;;;;;;4132491;28;20220;-92
2023/05/07 03:15:22;;;;;;;13.48;4.38;;;16.50;99.90;;;;;;4131785;28;20174;-92
2023/05/07 03:17:23;;;;;;;13.85;4.68;;;16.50;99.90;;;;;;4132642;28;20173;-92
2023/05/07 03:19:24;;;;;;;11.55;4.53;;;16.60;99.90;;;;;;4149156;28;20177;-92
2023/05/07 03:21:26;;;;;;;20.38;5.03;;;16.70;99.90;;;;;;4149218;28;20172;-95
2023/05/07 03:23:26;;;;;;;12.98;4.03;;;16.70;99.90;;;;;;4132846;28;20173;-92
2023/05/07 03:25:28;;;;;;;15.45;4.20;;;16.70;99.90;;;;;;4149119;28;20263;-92
2023/05/07 03:27:28;;;;;;;13.80;4.57;;;16.70;99.90;;;;;;4133093;28;20185;-92
2023/05/07 03:29:29;;;;;;;18.13;4.85;;;16.60;99.90;;;;;;4132933;28;20193;-94
2023/05/07 03:31:30;;;;;;;16.77;4.78;;;16.60;99.90;;;;;;4132673;28;20165;-94
2023/05/07 03:33:34;;;;;;;18.50;4.70;;;16.60;99.90;;;;;;4148976;28;20243;-92
2023/05/07 03:35:35;;;;;;;12.07;4.07;;;16.50;99.90;;;;;;4148915;28;20183;-93
2023/05/07 03:37:36;;;;;;;10.27;3.80;;;16.50;99.90;;;;;;4149016;28;20185;-92
2023/05/07 03:39:37;;;;;;;13.88;4.60;;;16.50;99.90;;;;;;4132848;28;20177;-93
2023/05/07 03:41:38;;;;;;;10.95;4.20;;;16.50;99.90;;;;;;4149060;28;20199;-92
2023/05/07 03:43:39;;;;;;;14.23;4.60;;;16.50;99.90;;;;;;4132466;28;20205;-92
2023/05/07 03:45:43;;;;;;;9.75;4.32;;;16.50;99.90;;;;;;4149647;28;20169;-95
2023/05/07 03:47:49;;;;;;;12.98;4.05;;;16.50;99.90;;;;;;4133000;28;20205;-93
2023/05/07 03:49:53;;;;;;;18.25;5.10;;;16.50;99.90;;;;;;4132562;28;20657;-93
2023/05/07 03:51:55;;;;;;;12.32;4.40;;;16.50;99.90;;;;;;4132199;28;20197;-93
2023/05/07 03:53:57;;;;;;;15.35;4.20;;;16.60;99.90;;;;;;4132291;28;20563;-94
2023/05/07 03:55:58;;;;;;;13.98;4.45;;;16.60;99.90;;;;;;4132687;28;20170;-95
2023/05/07 03:57:58;;;;;;;14.15;4.85;;;16.50;99.90;;;;;;4132190;28;20169;-95
2023/05/07 04:00:03;;;;;;;13.13;4.57;;;16.60;99.90;;;;;;4132488;28;20178;-95
2023/05/07 04:02:10;;;;;;;16.77;4.38;;;16.80;99.90;;;;;;4149138;28;20173;-94
2023/05/07 04:04:11;;;;;;;10.07;4.05;;;16.90;99.90;;;;;;4132032;28;20224;-95
2023/05/07 04:06:12;;;;;;;16.95;4.72;;;17.10;99.90;;;;;;4148573;28;20181;-92
2023/05/07 04:08:13;;;;;;;13.65;5.20;;;17.00;99.90;;;;;;4132151;28;20268;-94
2023/05/07 04:10:18;;;;;;;12.35;5.07;;;16.90;99.90;;;;;;4132605;28;20166;-94
2023/05/07 04:12:21;;;;;;;13.75;5.65;;;16.80;99.90;;;;;;4132494;28;20228;-93
2023/05/07 04:14:23;;;;;;;16.58;5.05;;;16.70;99.90;;;;;;4132549;28;20232;-92
2023/05/07 04:16:23;;;;;;;18.15;5.10;;;16.70;99.90;;;;;;4132127;28;20646;-95
2023/05/07 04:18:24;;;;;;;16.15;4.60;;;16.60;99.90;;;;;;4132072;28;20184;-93
2023/05/07 04:20:26;;;;;;;14.18;4.55;;;16.60;99.90;;;;;;4140149;28;20634;-92
2023/05/07 04:22:34;;;;;;;13.93;4.85;;;16.60;99.90;;;;;;4133026;28;20176;-92
2023/05/07 04:24:35;;;;;;;11.35;4.55;;;16.50;99.90;;;;;;4148241;28;20556;-93
2023/05/07 04:26:38;;;;;;;13.35;4.72;;;16.60;99.90;;;;;;4133373;28;20244;-93
2023/05/07 04:28:40;;;;;;;10.02;4.25;;;16.60;99.90;;;;;;4154103;28;20569;-93
2023/05/07 04:30:41;;;;;;;18.90;4.75;;;16.60;99.90;;;;;;4137371;28;20177;-94
2023/05/07 04:32:44;;;;;;;13.93;4.30;;;16.70;99.90;;;;;;4137303;28;20200;-91
2023/05/07 04:34:45;;;;;;;10.32;3.88;;;16.70;99.90;;;;;;4137534;28;20280;-94
2023/05/07 04:36:47;;;;;;;12.52;4.32;;;16.80;99.90;;;;;;4137326;28;20565;-91
2023/05/07 04:38:48;;;;;;;11.48;3.97;;;16.80;99.90;;;;;;4153488;28;20225;-91
2023/05/07 04:40:51;;;;;;;12.48;4.22;;;17.00;99.90;;;;;;4137627;28;20169;-92
2023/05/07 04:43:04;;;;;;;13.35;4.40;;;17.10;99.90;;;;;;4155201;28;20549;-91
2023/05/07 04:45:08;;;;;;;10.77;4.20;;;17.10;99.90;;;;;;4153629;28;20549;-94
2023/05/07 04:47:10;;;;;;;12.68;3.97;;;17.10;99.90;;;;;;4137088;28;20178;-91
2023/05/07 04:49:11;;;;;;;15.32;4.50;;;17.00;99.90;;;;;;4153426;28;20208;-91
2023/05/07 04:51:12;;;;;;;11.70;3.90;;;16.90;99.90;;;;;;4137121;28;20181;-91
2023/05/07 04:53:13;;;;;;;13.73;3.78;;;16.80;99.90;;;;;;4153314;28;20207;-91
2023/05/07 04:55:13;;;;;;;20.65;3.83;;;16.80;99.90;;;;;;4137219;28;20189;-93
2023/05/07 04:57:17;;;;;;;16.35;3.70;;;16.80;99.90;;;;;;4137185;28;20181;-94
2023/05/07 04:59:18;;;;;;;7.03;3.38;;;16.60;99.90;;;;;;4153356;28;20175;-94
2023/05/07 05:01:19;;;;;;;13.48;3.92;;;16.60;99.90;;;;;;4137160;28;20193;-94
2023/05/07 05:03:20;;;;;;;14.63;3.38;;;16.70;99.90;;;;;;4136949;28;20180;-93
2023/05/07 05:05:21;;;;;;;15.77;3.70;;;16.70;99.90;;;;;;4153399;28;20196;-92
2023/05/07 05:07:24;;;;;;;13.05;3.60;;;16.80;99.90;;;;;;4137465;28;20184;-93
2023/05/07 05:09:26;;;;;;;9.63;3.15;;;16.80;99.90;;;;;;4129120;28;20526;-92
2023/05/07 05:11:27;;;;;;;10.77;3.42;;;17.00;99.90;;;;;;4153268;28;20169;-93
2023/05/07 05:13:28;;;;;;;11.55;3.65;;;17.20;99.90;;;;;;4136637;28;20213;-93
2023/05/07 05:15:29;;;;;;;11.27;3.33;;;17.30;99.90;;;;;;4137138;28;20888;-93
2023/05/07 05:17:31;;;;;;;10.32;3.53;;;17.40;99.90;;;;;;4136798;28;20598;-92
2023/05/07 05:19:33;;;;;;;17.40;3.63;;;17.40;99.90;;;;;;4137022;28;20161;-94
2023/05/07 05:21:33;;;;;;;11.48;4.32;;;17.50;99.90;;;;;;4137072;28;20175;-93
2023/05/07 05:23:39;;;;;;;13.18;3.92;;;17.50;99.90;;;;;;4137514;28;20708;-94
2023/05/07 05:25:40;;;;;;;10.00;3.90;;;17.60;99.90;;;;;;4153415;28;20173;-92
2023/05/07 05:27:44;;;;;;;11.55;5.82;;;17.60;99.90;;;;;;4137250;28;20169;-94
2023/05/07 05:29:45;;;;;;;12.88;5.85;;;17.60;99.90;;;;;;4152916;28;20173;-94
2023/05/07 05:31:45;;;;;;;9.70;4.28;;;17.60;99.90;;;;;;4136711;28;20178;-94
2023/05/07 05:33:46;;;;;;;13.10;5.32;;;17.40;99.90;;;;;;4152834;28;20223;-93
2023/05/07 05:35:49;;;;;;;11.20;5.30;;;17.30;99.90;;;;;;4137017;28;20168;-93
2023/05/07 05:37:50;;;;;;;15.10;5.22;;;17.20;99.90;;;;;;4136455;28;20279;-93
2023/05/07 05:39:54;;;;;;;18.55;5.18;;;17.10;99.90;;;;;;4149551;28;20169;-94
2023/05/07 05:41:55;;;;;;;14.88;5.30;;;17.00;99.90;;;;;;4134125;28;20177;-94
2023/05/07 05:43:56;;;;;;;15.50;5.00;;;17.00;99.90;;;;;;4150686;28;20200;-94
2023/05/07 05:45:57;;;;;;;13.75;5.40;;;17.00;99.90;;;;;;4134008;28;20182;-94
2023/05/07 05:47:58;;;;;;;14.50;6.43;;;17.00;99.90;;;;;;4150450;28;20542;-94
2023/05/07 05:49:59;;;;;;;14.43;5.72;;;17.10;99.90;;;;;;4150386;28;20268;-95
2023/05/07 05:52:00;;;;;;;13.20;5.97;;;17.10;99.90;;;;;;4150441;28;20176;-92
2023/05/07 05:54:02;;;;;;;15.35;6.15;;;17.10;99.90;;;;;;4150133;28;20204;-92
2023/05/07 05:56:03;;;;;;;17.15;6.40;;;17.10;99.90;;;;;;4134190;28;20180;-95
2023/05/07 05:58:06;;;;;;;16.02;6.13;;;17.10;99.90;;;;;;4150134;28;20181;-95
2023/05/07 06:00:11;;;;;;;20.17;6.28;;;17.20;99.90;;;;;;4150440;28;20161;-94
2023/05/07 06:02:19;;;;;;;20.52;6.43;;;17.20;99.90;;;;;;4166670;28;20184;-95
2023/05/07 06:04:20;;;;;;;22.27;6.35;;;17.10;99.90;;;;;;4150015;28;20204;-93
2023/05/07 06:06:21;;;;;;;16.23;5.57;;;17.10;99.90;;;;;;4150075;28;20177;-94
2023/05/07 06:08:22;;;;;;;20.25;6.30;;;17.20;99.90;;;;;;4133905;28;20216;-95
2023/05/07 06:10:23;;;;;;;13.38;5.30;;;17.20;99.90;;;;;;4133887;28;20173;-92
2023/05/07 06:12:24;;;;;;;15.85;5.70;;;17.20;99.90;;;;;;4133630;28;20173;-95
2023/05/07 06:14:25;;;;;;;22.10;5.43;;;17.20;99.90;;;;;;4149918;28;20203;-94
2023/05/07 06:16:27;;;;;;;19.13;7.97;;;17.20;99.90;;;;;;4134168;28;20169;-93
2023/05/07 06:18:28;;;;;;;21.00;9.55;;;17.20;99.90;;;;;;4150130;28;20187;-93
2023/05/07 06:20:29;;;;;;;22.45;14.02;;;17.30;99.90;;;;;;4149861;28;20169;-93
2023/05/07 06:22:31;;;;;;;20.55;9.43;;;17.30;99.90;;;;;;4133873;28;20205;-94
2023/05/07 06:24:32;;;;;;;21.13;10.90;;;17.20;99.90;;;;;;4133285;28;20193;-94
2023/05/07 06:26:32;;;;;;;14.35;6.90;;;17.10;99.90;;;;;;4149388;28;20200;-94
2023/05/07 06:28:36;;;;;;;24.23;12.40;;;17.20;99.90;;;;;;4133287;28;20256;-93
2023/05/07 06:30:40;;;;;;;13.75;6.18;;;17.20;99.90;;;;;;4149594;28;20184;-92
2023/05/07 06:32:41;;;;;;;14.18;6.30;;;17.30;99.90;;;;;;4149380;28;20200;-94
2023/05/07 06:34:42;;;;;;;13.70;6.22;;;17.40;99.90;;;;;;4149651;28;20236;-94
2023/05/07 06:36:43;;;;;;;38.38;26.10;;;17.30;99.90;;;;;;4133517;28;20183;-93
2023/05/07 06:39:00;;;;;;;12.02;4.82;;;17.30;99.90;;;;;;4151900;28;20173;-92
2023/05/07 06:41:01;;;;;;;14.15;5.65;;;17.20;99.90;;;;;;4133563;28;20165;-94
2023/05/07 06:43:02;;;;;;;16.50;5.93;;;17.30;99.90;;;;;;4133342;28;20660;-92
2023/05/07 06:45:11;;;;;;;13.75;5.03;;;17.30;99.90;;;;;;4150368;28;20200;-94
2023/05/07 06:47:11;;;;;;;16.35;5.78;;;17.30;99.90;;;;;;4149640;28;20177;-94
2023/05/07 06:49:14;;;;;;;16.27;4.90;;;17.40;99.90;;;;;;4149588;28;20172;-94
2023/05/07 06:51:15;;;;;;;11.00;5.20;;;17.40;99.90;;;;;;4149027;28;20204;-93
2023/05/07 06:53:16;;;;;;;12.57;5.03;;;17.40;99.90;;;;;;4149367;28;20220;-94
2023/05/07 06:55:17;;;;;;;12.90;5.88;;;17.30;99.90;;;;;;4133346;28;20173;-93
2023/05/07 06:57:18;;;;;;;11.90;5.07;;;17.40;99.90;;;;;;4149216;28;20288;-94
2023/05/07 06:59:19;;;;;;;14.75;5.32;;;17.40;99.90;;;;;;4133027;28;20268;-94
2023/05/07 07:01:20;;;;;;;12.93;5.18;;;17.50;99.90;;;;;;4150137;28;20233;-94
2023/05/07 07:03:21;;;;;;;18.20;5.15;;;17.50;99.90;;;;;;4149554;28;20169;-94
2023/05/07 07:05:22;;;;;;;10.73;4.13;;;17.60;99.90;;;;;;4149597;28;20264;-94
2023/05/07 07:07:25;;;;;;;11.48;4.10;;;17.60;99.90;;;;;;4150542;28;20174;-94
2023/05/07 07:09:26;;;;;;;10.52;3.88;;;17.50;99.90;;;;;;4149838;28;20367;-93
2023/05/07 07:11:28;;;;;;;10.88;3.17;;;17.50;99.90;;;;;;4151238;28;20264;-92
2023/05/07 07:13:29;;;;;;;10.77;4.28;;;17.50;99.90;;;;;;4135029;28;20217;-93
2023/05/07 07:15:30;;;;;;;7.80;3.65;;;17.50;99.90;;;;;;4151607;28;20233;-93
2023/05/07 07:17:31;;;;;;;10.65;3.40;;;17.60;99.90;;;;;;4136817;28;20256;-95
2023/05/07 07:19:39;;;;;;;10.32;3.28;;;17.70;99.90;;;;;;4151353;28;20187;-94
2023/05/07 07:21:40;;;;;;;10.15;3.33;;;17.80;99.90;;;;;;4138666;28;20189;-92
2023/05/07 07:23:41;;;;;;;8.60;2.75;;;17.90;99.90;;;;;;4148905;28;20653;-94
2023/05/07 07:25:42;;;;;;;9.40;3.50;;;17.70;99.90;;;;;;4133704;28;20201;-93
2023/05/07 07:27:44;;;;;;;8.32;2.92;;;17.90;99.90;;;;;;4149652;28;20152;-92
2023/05/07 07:29:46;;;;;;;8.80;2.83;;;17.90;99.90;;;;;;4136807;28;20635;-92
2023/05/07 07:31:49;;;;;;;7.40;2.72;;;17.90;99.90;;;;;;4150212;28;20177;-93
2023/05/07 07:33:50;;;;;;;13.05;4.25;;;17.90;99.90;;;;;;4133900;28;20221;-92
2023/05/07 07:35:52;;;;;;;14.27;8.60;;;18.00;99.90;;;;;;4148999;28;20200;-93
2023/05/07 07:37:52;;;;;;;9.43;3.17;;;18.00;99.90;;;;;;4132227;28;20189;-93
2023/05/07 07:39:53;;;;;;;5.43;2.78;;;18.10;99.90;;;;;;4132465;28;20174;-93
2023/05/07 07:41:56;;;;;;;11.73;2.55;;;18.10;99.90;;;;;;4133229;28;20177;-95
2023/05/07 07:43:57;;;;;;;7.10;3.20;;;18.10;99.90;;;;;;4132448;28;20273;-95
2023/05/07 07:45:57;;;;;;;14.07;7.82;;;18.20;99.90;;;;;;4148455;28;20184;-93
2023/05/07 07:47:58;;;;;;;8.02;3.60;;;18.40;99.90;;;;;;4132917;28;20189;-93
2023/05/07 07:49:59;;;;;;;7.78;2.63;;;18.30;99.90;;;;;;4149074;28;20268;-93
2023/05/07 07:52:00;;;;;;;11.38;2.50;;;18.40;99.90;;;;;;4132348;28;20216;-94
2023/05/07 07:54:02;;;;;;;6.68;2.58;;;18.40;99.90;;;;;;4149140;28;20216;-95
2023/05/07 07:56:05;;;;;;;8.73;2.60;;;18.40;99.90;;;;;;4148615;28;20633;-93
2023/05/07 07:58:08;;;;;;;8.18;2.60;;;18.50;99.90;;;;;;4133177;28;20177;-93
2023/05/07 08:00:09;;;;;;;7.05;2.50;;;18.40;99.90;;;;;;4133044;28;20170;-94
2023/05/07 08:02:17;;;;;;;22.30;2.72;;;18.40;99.90;;;;;;4149063;28;20180;-94
2023/05/07 08:04:18;;;;;;;6.57;2.83;;;18.50;99.90;;;;;;4148487;28;20263;-93
2023/05/07 08:06:20;;;;;;;8.30;2.78;;;18.60;99.90;;;;;;4149564;28;20592;-93
2023/05/07 08:08:21;;;;;;;8.40;2.83;;;18.50;99.90;;;;;;4149454;28;20184;-96
2023/05/07 08:10:22;;;;;;;9.32;2.80;;;18.60;99.90;;;;;;4148569;28;20193;-93
2023/05/07 08:12:27;;;;;;;9.68;2.97;;;18.70;99.90;;;;;;4132311;28;20184;-94
2023/05/07 08:14:28;;;;;;;5.60;2.75;;;18.80;99.90;;;;;;4132390;28;20554;-95
2023/05/07 08:16:29;;;;;;;6.97;2.67;;;18.80;99.90;;;;;;4132320;28;20178;-93
2023/05/07 08:18:30;;;;;;;8.18;2.92;;;18.70;99.90;;;;;;4131996;28;20183;-96
2023/05/07 08:20:39;;;;;;;12.93;2.75;;;18.70;99.90;;;;;;4148468;28;20164;-92
2023/05/07 08:22:40;;;;;;;6.13;2.22;;;18.80;99.90;;;;;;4148114;28;20276;-94
2023/05/07 08:24:41;;;;;;;9.60;2.60;;;18.90;99.90;;;;;;4147960;28;20192;-93
2023/05/07 08:26:46;;;;;;;8.63;2.40;;;18.90;99.90;;;;;;4131740;28;20169;-94
2023/05/07 08:28:47;;;;;;;6.63;2.17;;;18.90;99.90;;;;;;4131550;28;20174;-93
2023/05/07 08:30:47;;;;;;;8.55;2.42;;;18.90;99.90;;;;;;4148400;28;20740;-93
2023/05/07 08:32:48;;;;;;;8.27;2.00;;;19.00;99.90;;;;;;4132043;28;20205;-93
2023/05/07 08:34:49;;;;;;;7.85;2.10;;;19.00;99.90;;;;;;4148036;28;20260;-94
2023/05/07 08:36:50;;;;;;;5.32;2.38;;;19.00;99.90;;;;;;4131734;28;20177;-93
2023/05/07 08:38:55;;;;;;;8.57;2.50;;;18.90;99.90;;;;;;4132361;28;20178;-94
2023/05/07 08:40:56;;;;;;;6.10;1.95;;;18.90;99.90;;;;;;4148032;28;20180;-94
2023/05/07 08:42:57;;;;;;;7.70;2.35;;;18.80;99.90;;;;;;4131944;28;20248;-92
2023/05/07 08:44:59;;;;;;;8.73;2.75;;;18.90;99.90;;;;;;4131844;28;20193;-94
2023/05/07 08:47:06;;;;;;;6.95;2.30;;;18.90;99.90;;;;;;4147749;28;20696;-93
2023/05/07 08:49:08;;;;;;;6.55;2.20;;;18.80;99.90;;;;;;4131710;28;20178;-93
2023/05/07 08:51:16;;;;;;;5.80;2.53;;;18.80;99.90;;;;;;4147970;28;20203;-94
2023/05/07 08:53:17;;;;;;;8.45;3.00;;;18.80;99.90;;;;;;4147960;28;20204;-93
2023/05/07 08:55:19;;;;;;;9.73;2.70;;;18.90;99.90;;;;;;4131655;28;20245;-94
2023/05/07 08:57:21;;;;;;;9.25;2.80;;;18.90;99.90;;;;;;4147931;28;20645;-93
2023/05/07 08:59:22;;;;;;;7.45;2.45;;;18.80;99.90;;;;;;4131532;28;20185;-93
2023/05/07 09:01:24;;;;;;;8.60;2.90;;;18.90;99.90;;;;;;4147836;28;20177;-92
2023/05/07 09:03:26;;;;;;;6.88;2.65;;;19.00;99.90;;;;;;4131673;28;20213;-92
2023/05/07 09:05:29;;;;;;;8.70;2.88;;;19.10;99.90;;;;;;4132080;28;20205;-94
2023/05/07 09:07:31;;;;;;;8.13;2.70;;;19.20;99.90;;;;;;4131876;28;20173;-92
2023/05/07 09:09:33;;;;;;;8.13;3.00;;;19.20;99.90;;;;;;4131502;28;20267;-94
2023/05/07 09:11:34;;;;;;;6.90;2.72;;;19.40;99.90;;;;;;4148025;28;20542;-93
2023/05/07 09:13:37;;;;;;;8.00;2.78;;;19.40;99.90;;;;;;4148043;28;20608;-93
2023/05/07 09:15:38;;;;;;;7.32;2.85;;;19.50;99.90;;;;;;4134638;28;20220;-95
2023/05/07 09:17:41;;;;;;;8.45;3.30;;;19.50;99.90;;;;;;4150858;28;20173;-94
2023/05/07 09:19:47;;;;;;;6.07;2.55;;;19.40;99.90;;;;;;4134593;28;20176;-92
2023/05/07 09:21:49;;;;;;;10.38;2.83;;;19.40;99.90;;;;;;4150854;28;20564;-93
2023/05/07 09:23:52;;;;;;;7.43;2.53;;;19.50;99.90;;;;;;4134388;28;21027;-92
2023/05/07 09:26:01;;;;;;;7.45;2.88;;;19.60;99.90;;;;;;4150980;28;20177;-94
2023/05/07 09:28:07;;;;;;;7.03;2.42;;;19.70;99.90;;;;;;4134555;28;20211;-94
2023/05/07 09:30:08;;;;;;;24.27;20.70;;;19.80;99.90;;;;;;4150894;28;20180;-93
2023/05/07 09:32:10;;;;;;;6.43;2.65;;;19.70;99.90;;;;;;4134496;28;20174;-93
2023/05/07 09:34:11;;;;;;;8.23;3.15;;;19.80;99.90;;;;;;4134390;28;20779;-94
2023/05/07 09:36:15;;;;;;;6.90;2.30;;;20.00;99.90;;;;;;4150287;28;20173;-93
2023/05/07 09:38:20;;;;;;;7.15;2.78;;;20.10;99.90;;;;;;4134411;28;20685;-92
2023/05/07 09:40:24;;;;;;;7.60;2.53;;;20.10;99.90;;;;;;4134362;28;20264;-93
2023/05/07 09:42:27;;;;;;;6.82;2.97;;;20.10;99.90;;;;;;4134210;28;20177;-93
2023/05/07 09:44:33;;;;;;;7.93;2.88;;;20.10;99.90;;;;;;4134465;28;20546;-93
2023/05/07 09:46:36;;;;;;;8.40;2.60;;;20.10;99.90;;;;;;4134162;28;20177;-94
2023/05/07 09:48:43;;;;;;;8.07;3.05;;;20.00;99.90;;;;;;4151052;28;20175;-93
2023/05/07 09:50:49;;;;;;;5.40;3.15;;;20.00;99.90;;;;;;4150209;28;20177;-93
2023/05/07 09:52:52;;;;;;;5.72;3.33;;;20.00;99.90;;;;;;4134896;28;20205;-94
2023/05/07 09:54:54;;;;;;;7.75;3.13;;;20.10;99.90;;;;;;4133991;28;20239;-92
2023/05/07 09:56:59;;;;;;;7.18;3.38;;;20.00;99.90;;;;;;4150371;28;20580;-93
2023/05/07 09:59:03;;;;;;;6.18;3.28;;;19.90;99.90;;;;;;4149939;28;20172;-94
2023/05/07 10:01:06;;;;;;;6.30;3.03;;;19.60;99.90;;;;;;4150164;28;20691;-93
2023/05/07 10:03:09;;;;;;;6.57;3.08;;;19.60;99.90;;;;;;4134130;28;20165;-94
2023/05/07 10:05:22;;;;;;;7.60;2.67;;;19.50;99.90;;;;;;4151438;28;20169;-94
2023/05/07 10:07:25;;;;;;;8.60;3.70;;;19.60;99.90;;;;;;4134182;28;20602;-93
2023/05/07 10:09:30;;;;;;;6.63;3.13;;;19.70;99.90;;;;;;4134348;28;20692;-92
2023/05/07 10:11:35;;;;;;;14.00;3.67;;;19.70;99.90;;;;;;4133772;28;20200;-93
2023/05/07 10:13:37;;;;;;;4.75;2.97;;;19.70;99.90;;;;;;4133449;28;20217;-94
2023/05/07 10:15:41;;;;;;;11.68;3.25;;;19.70;99.90;;;;;;4133824;28;20267;-93
2023/05/07 10:17:42;;;;;;;5.88;2.83;;;19.70;99.90;;;;;;4149841;28;20169;-94
2023/05/07 10:19:44;;;;;;;7.82;3.20;;;19.60;99.90;;;;;;4133942;28;20199;-93
2023/05/07 10:21:58;;;;;;;6.10;3.28;;;19.70;99.90;;;;;;4134301;28;20197;-93
2023/05/07 10:24:13;;;;;;;5.63;3.05;;;19.70;99.90;;;;;;4136756;28;20706;-94
2023/05/07 10:26:15;;;;;;;6.90;3.30;;;19.90;99.90;;;;;;4135238;28;20686;-93
2023/05/07 10:28:22;;;;;;;6.35;3.50;;;20.00;99.90;;;;;;4152830;28;20263;-92
2023/05/07 10:30:42;;;;;;;8.90;3.00;;;19.90;99.90;;;;;;4151948;28;20188;-92
2023/05/07 10:32:50;;;;;;;6.50;3.17;;;19.80;99.90;;;;;;4134862;28;20209;-95
2023/05/07 10:35:02;;;;;;;5.72;3.05;;;20.00;99.90;;;;;;4152948;28;20232;-94